Crosby, Mississippi
Current Conditions -  °F | °C
As of 8:15 AM on Friday 19 Dec 2014 (Local Time) from KHEZ Reporting Station
Overcast Overcast  
Wind Chill: 44°   Ceiling: 1900
Heat Index: 48°   Visibility: 9mi
Dew Point: 46°   Wind: 9mph
Humidity: 93%   Direction: 80°E
Pressure: 30.13"   Gusts: NA
Location:  31.28°N, 91.06°W
Report Text: KHEZ 191415Z AUTO 08008KT 9SM OVC019 09/08 A3013 RMK AO1
Loading
Personal Weather Stations






























Interactive Weather Map New forecast layout! Learn more

10-Day Weather Forecast

Advertisements
Track Severe Weather on mobile